Time;durP1;ratioP1;P1;durP2;ratioP2;P2;SDS_P1;SDS_P2;PMS_P1;PMS_P2;Temp;Humidity;BMP_temperature;BMP_pressure;BME280_temperature;BME280_humidity;BME280_pressure;Samples;Min_cycle;Max_cycle;Signal;HPM_P1;HPM_P2
2022/06/27 00:00:10;;;;;;;4.35;3.40;;;20.50;68.60;;;;;;5062407;28;20459;-89
2022/06/27 00:02:39;;;;;;;6.40;3.80;;;20.50;68.80;;;;;;5059874;28;20200;-89
2022/06/27 00:05:05;;;;;;;7.70;5.63;;;20.40;69.30;;;;;;5059718;28;20420;-89
2022/06/27 00:07:39;;;;;;;4.83;4.33;;;20.40;69.80;;;;;;5032812;28;20459;-89
2022/06/27 00:10:06;;;;;;;4.40;3.77;;;20.40;70.70;;;;;;5025607;28;20413;-89
2022/06/27 00:12:32;;;;;;;6.10;4.23;;;20.40;69.90;;;;;;5012650;28;20519;-89
2022/06/27 00:14:58;;;;;;;5.03;4.57;;;20.40;70.20;;;;;;5018479;28;21026;-88
2022/06/27 00:17:24;;;;;;;6.40;4.90;;;20.30;70.70;;;;;;5017874;28;20437;-89
2022/06/27 00:19:50;;;;;;;4.50;4.10;;;20.30;71.50;;;;;;5017977;28;20793;-90
2022/06/27 00:23:04;;;;;;;7.20;4.80;;;20.30;71.40;;;;;;5018032;28;20439;-89
2022/06/27 00:25:29;;;;;;;4.77;4.33;;;20.30;71.30;;;;;;5035700;28;20201;-89
2022/06/27 00:27:55;;;;;;;5.80;3.80;;;20.30;71.60;;;;;;5017339;28;20404;-90
2022/06/27 00:30:21;;;;;;;5.33;3.90;;;20.30;71.20;;;;;;5018018;28;20508;-89
2022/06/27 00:32:48;;;;;;;5.10;3.77;;;20.30;70.80;;;;;;5018739;28;20296;-89
2022/06/27 00:35:15;;;;;;;4.40;4.00;;;20.30;70.80;;;;;;5037342;28;20234;-90
2022/06/27 00:37:51;;;;;;;6.80;4.63;;;20.30;70.70;;;;;;5036845;28;20181;-88
2022/06/27 00:40:16;;;;;;;5.10;4.70;;;20.30;70.70;;;;;;5037281;28;20573;-87
2022/06/27 00:42:42;;;;;;;7.40;4.70;;;20.30;71.40;;;;;;5020976;28;20420;-89
2022/06/27 00:45:08;;;;;;;6.00;3.90;;;20.20;71.40;;;;;;5037280;28;20181;-88
2022/06/27 00:47:34;;;;;;;6.87;4.40;;;20.20;71.80;;;;;;5054604;28;20181;-88
2022/06/27 00:50:00;;;;;;;5.57;4.10;;;20.20;72.00;;;;;;5055239;28;20776;-88
2022/06/27 00:52:27;;;;;;;9.07;3.80;;;20.10;72.10;;;;;;5057768;28;20680;-87
2022/06/27 00:55:03;;;;;;;4.33;3.90;;;20.10;72.20;;;;;;5022659;28;20487;-89
2022/06/27 00:57:29;;;;;;;7.13;4.30;;;20.00;72.50;;;;;;5034533;28;20432;-89
2022/06/27 00:59:55;;;;;;;4.37;3.73;;;20.10;72.40;;;;;;5017503;28;20813;-89
2022/06/27 01:02:20;;;;;;;5.43;4.13;;;20.00;71.90;;;;;;5035001;28;20417;-90
2022/06/27 01:04:46;;;;;;;4.60;3.60;;;20.00;71.80;;;;;;5034676;28;20440;-89
2022/06/27 01:07:12;;;;;;;4.72;3.20;;;20.00;71.70;;;;;;5016528;28;20194;-89
2022/06/27 01:09:39;;;;;;;6.17;5.20;;;19.90;72.30;;;;;;5033183;28;20185;-88
2022/06/27 01:12:06;;;;;;;5.03;3.27;;;20.00;71.30;;;;;;5017018;28;20177;-89
2022/06/27 01:14:32;;;;;;;5.65;4.15;;;20.10;70.60;;;;;;5016898;28;20413;-89
2022/06/27 01:16:58;;;;;;;4.80;4.33;;;20.20;70.20;;;;;;5016329;28;20197;-89
2022/06/27 01:19:24;;;;;;;4.07;3.50;;;20.20;70.00;;;;;;5016721;28;20567;-89
2022/06/27 01:22:28;;;;;;;5.32;4.00;;;20.20;70.10;;;;;;5016715;28;20531;-89
2022/06/27 01:24:54;;;;;;;4.50;3.70;;;20.00;71.00;;;;;;5016833;28;20174;-89
2022/06/27 01:27:20;;;;;;;6.20;4.07;;;20.00;71.40;;;;;;5016053;28;20641;-89
2022/06/27 01:29:46;;;;;;;4.50;3.60;;;19.90;71.70;;;;;;5019611;28;20435;-89
2022/06/27 01:32:11;;;;;;;7.00;4.20;;;19.90;71.80;;;;;;5036793;28;20174;-89
2022/06/27 01:34:37;;;;;;;4.60;4.20;;;19.80;72.50;;;;;;5037502;28;20181;-89
2022/06/27 01:37:04;;;;;;;6.67;4.20;;;19.80;72.70;;;;;;5039526;28;20657;-89
2022/06/27 01:39:30;;;;;;;4.22;3.40;;;19.70;73.00;;;;;;5026215;28;20228;-89
2022/06/27 01:41:59;;;;;;;5.07;4.57;;;19.70;73.40;;;;;;5017420;28;20173;-89
2022/06/27 01:44:27;;;;;;;10.33;4.70;;;19.60;73.00;;;;;;5033261;28;20612;-89
2022/06/27 01:46:54;;;;;;;6.10;4.10;;;19.60;73.50;;;;;;5017763;28;20808;-89
2022/06/27 01:49:20;;;;;;;5.00;4.50;;;19.60;73.60;;;;;;5036055;28;20202;-89
2022/06/27 01:51:51;;;;;;;7.10;4.90;;;19.60;74.00;;;;;;5017032;28;20201;-88
2022/06/27 01:54:19;;;;;;;6.07;4.60;;;19.60;74.20;;;;;;5033804;28;20428;-89
2022/06/27 01:56:46;;;;;;;6.35;4.55;;;19.50;74.80;;;;;;5015295;28;20269;-89
2022/06/27 01:59:14;;;;;;;6.38;4.40;;;19.50;74.60;;;;;;5015916;28;20182;-89
2022/06/27 02:01:41;;;;;;;6.53;5.03;;;19.50;75.40;;;;;;5033349;28;20209;-89
2022/06/27 02:04:08;;;;;;;6.50;4.70;;;19.60;74.60;;;;;;5015864;28;20202;-89
2022/06/27 02:06:34;;;;;;;6.82;3.85;;;19.60;74.30;;;;;;5033445;28;20201;-89
2022/06/27 02:09:04;;;;;;;6.75;4.28;;;19.60;74.20;;;;;;5031452;28;20174;-89
2022/06/27 02:11:30;;;;;;;6.63;5.32;;;19.60;73.80;;;;;;5035813;28;20553;-88
2022/06/27 02:13:57;;;;;;;5.43;4.50;;;19.60;73.80;;;;;;5035396;28;20173;-89
2022/06/27 02:16:23;;;;;;;11.05;4.88;;;19.60;74.10;;;;;;5035747;28;20205;-89
2022/06/27 02:18:53;;;;;;;6.73;4.10;;;19.60;74.20;;;;;;5034969;28;20538;-89
2022/06/27 02:21:25;;;;;;;5.13;4.13;;;19.60;74.10;;;;;;5034838;28;20447;-89
2022/06/27 02:23:53;;;;;;;5.25;4.32;;;19.60;74.10;;;;;;5035218;28;20208;-89
2022/06/27 02:26:24;;;;;;;6.15;5.35;;;19.60;74.30;;;;;;5035755;28;20193;-89
2022/06/27 02:28:53;;;;;;;4.80;4.07;;;19.50;74.80;;;;;;5034774;28;20193;-89
2022/06/27 02:31:19;;;;;;;6.45;4.43;;;19.50;75.20;;;;;;5053015;28;20196;-89
2022/06/27 02:33:48;;;;;;;5.65;5.13;;;19.40;75.70;;;;;;5035178;28;20188;-89
2022/06/27 02:36:29;;;;;;;7.80;4.65;;;19.40;76.00;;;;;;5034768;28;20661;-89
2022/06/27 02:38:55;;;;;;;8.35;5.53;;;19.30;76.00;;;;;;5034956;28;20183;-89
2022/06/27 02:41:23;;;;;;;5.72;4.43;;;19.40;75.70;;;;;;5052957;28;20205;-89
2022/06/27 02:43:52;;;;;;;5.88;4.72;;;19.30;75.90;;;;;;5035154;28;20669;-90
2022/06/27 02:46:19;;;;;;;8.05;5.40;;;19.30;75.70;;;;;;5034848;28;20292;-89
2022/06/27 02:48:49;;;;;;;6.43;4.43;;;19.20;75.40;;;;;;5053014;28;20188;-90
2022/06/27 02:51:21;;;;;;;5.40;4.82;;;19.20;76.00;;;;;;5052837;28;20222;-89
2022/06/27 02:54:14;;;;;;;6.93;5.72;;;19.10;76.40;;;;;;5052471;28;20169;-89
2022/06/27 02:56:45;;;;;;;7.18;4.88;;;19.00;77.10;;;;;;5051647;28;20216;-89
2022/06/27 02:59:21;;;;;;;5.57;5.07;;;19.00;77.50;;;;;;5035097;28;20177;-89
2022/06/27 03:01:49;;;;;;;10.82;5.80;;;18.90;77.70;;;;;;5034878;28;20197;-89
2022/06/27 03:04:15;;;;;;;9.38;6.10;;;18.80;78.40;;;;;;5035073;28;20188;-89
2022/06/27 03:06:41;;;;;;;8.57;5.57;;;18.80;79.10;;;;;;5034080;28;20192;-89
2022/06/27 03:09:07;;;;;;;6.13;5.10;;;18.80;79.30;;;;;;5052817;28;20418;-89
2022/06/27 03:11:33;;;;;;;7.68;5.63;;;18.80;79.20;;;;;;5034834;28;20216;-88
2022/06/27 03:13:59;;;;;;;5.77;5.00;;;18.80;79.30;;;;;;5052513;28;20216;-89
2022/06/27 03:16:25;;;;;;;12.20;6.00;;;18.80;79.30;;;;;;5040114;28;20210;-88
2022/06/27 03:18:52;;;;;;;6.50;5.70;;;18.80;79.10;;;;;;5032143;28;20460;-89
2022/06/27 03:21:20;;;;;;;7.55;6.28;;;18.80;78.40;;;;;;5014658;28;20478;-89
2022/06/27 03:23:46;;;;;;;9.13;4.50;;;18.80;78.20;;;;;;5032568;28;20173;-89
2022/06/27 03:26:13;;;;;;;8.65;6.35;;;18.80;77.90;;;;;;5014574;28;20224;-89
2022/06/27 03:28:39;;;;;;;5.10;4.38;;;18.80;78.20;;;;;;5014584;28;20204;-89
2022/06/27 03:31:05;;;;;;;6.20;5.00;;;18.80;78.10;;;;;;5017511;28;20182;-89
2022/06/27 03:33:30;;;;;;;10.23;6.27;;;18.80;78.20;;;;;;5019021;28;20416;-89
2022/06/27 03:35:56;;;;;;;7.03;5.10;;;18.80;78.20;;;;;;5024076;28;20563;-90
2022/06/27 03:38:23;;;;;;;5.70;5.07;;;18.80;78.50;;;;;;5065185;28;20243;-90
2022/06/27 03:40:49;;;;;;;5.60;5.00;;;18.80;78.40;;;;;;5055191;28;20215;-90
2022/06/27 03:43:15;;;;;;;11.03;5.97;;;18.80;78.50;;;;;;5040471;28;20275;-89
2022/06/27 03:45:41;;;;;;;8.82;5.80;;;18.80;78.50;;;;;;5038510;28;20197;-90
2022/06/27 03:48:07;;;;;;;9.35;6.20;;;18.80;78.40;;;;;;5021747;28;20184;-89
2022/06/27 03:50:35;;;;;;;7.40;6.63;;;18.80;78.50;;;;;;5037861;28;20177;-89
2022/06/27 03:53:02;;;;;;;7.47;5.90;;;18.80;78.90;;;;;;5038219;28;20319;-88
2022/06/27 03:55:28;;;;;;;9.13;5.60;;;18.80;79.40;;;;;;5038136;28;20256;-88
2022/06/27 03:57:57;;;;;;;6.40;5.80;;;18.80;80.00;;;;;;5037390;28;20531;-88
2022/06/27 04:00:32;;;;;;;9.68;7.28;;;18.80;80.00;;;;;;5037726;28;20193;-88
2022/06/27 04:02:59;;;;;;;7.50;6.80;;;18.80;79.50;;;;;;5038029;28;20165;-88
2022/06/27 04:05:25;;;;;;;9.82;6.00;;;18.80;79.20;;;;;;5037838;28;20192;-88
2022/06/27 04:07:50;;;;;;;10.60;5.90;;;18.80;79.40;;;;;;5037247;28;20286;-88
2022/06/27 04:10:47;;;;;;;9.17;5.63;;;18.80;79.70;;;;;;5037774;28;20423;-88
2022/06/27 04:13:13;;;;;;;5.95;5.28;;;18.80;79.70;;;;;;5037709;28;20168;-88
2022/06/27 04:15:40;;;;;;;8.27;6.57;;;18.80;79.90;;;;;;5056440;28;20193;-88
2022/06/27 04:18:05;;;;;;;10.13;5.93;;;18.80;79.80;;;;;;5037308;28;20224;-88
2022/06/27 04:20:31;;;;;;;8.53;6.00;;;18.80;79.40;;;;;;5037419;28;20228;-88
2022/06/27 04:22:57;;;;;;;7.50;6.07;;;18.80;79.40;;;;;;5037501;28;20579;-88
2022/06/27 04:25:24;;;;;;;6.60;5.87;;;18.80;79.30;;;;;;5051662;28;20197;-88
2022/06/27 04:27:51;;;;;;;7.30;6.57;;;18.90;79.00;;;;;;5016994;28;20181;-88
2022/06/27 04:30:16;;;;;;;11.02;6.60;;;18.90;79.20;;;;;;5035426;28;20622;-88
2022/06/27 04:32:44;;;;;;;10.43;6.63;;;18.80;79.80;;;;;;5017399;28;20212;-88
2022/06/27 04:35:11;;;;;;;8.50;6.30;;;18.80;80.40;;;;;;5001267;28;20944;-89
2022/06/27 04:37:41;;;;;;;7.97;5.97;;;18.80;80.40;;;;;;5017208;28;20210;-89
2022/06/27 04:40:19;;;;;;;6.80;5.95;;;18.80;80.50;;;;;;5017334;28;20281;-88
2022/06/27 04:42:48;;;;;;;10.82;6.65;;;18.80;80.40;;;;;;5017380;28;20637;-89
2022/06/27 04:45:14;;;;;;;7.50;6.20;;;18.90;80.30;;;;;;5035092;28;20258;-89
2022/06/27 04:47:44;;;;;;;7.03;6.32;;;19.00;79.50;;;;;;5016457;28;20185;-89
2022/06/27 04:50:12;;;;;;;8.25;6.38;;;19.00;79.00;;;;;;5017045;28;20189;-89
2022/06/27 04:52:39;;;;;;;9.07;5.97;;;19.10;78.70;;;;;;5034528;28;20287;-88
2022/06/27 04:55:30;;;;;;;7.30;5.40;;;19.10;78.80;;;;;;5017311;28;20288;-88
2022/06/27 04:57:56;;;;;;;8.05;6.13;;;19.20;78.20;;;;;;5016781;28;20182;-88
2022/06/27 05:00:22;;;;;;;8.55;7.10;;;19.30;77.40;;;;;;5037456;28;20224;-89
2022/06/27 05:02:48;;;;;;;7.67;6.97;;;19.40;76.80;;;;;;5063927;28;20177;-88
2022/06/27 05:05:14;;;;;;;9.40;6.50;;;19.40;76.90;;;;;;5046091;28;20183;-88
2022/06/27 05:07:40;;;;;;;6.70;5.97;;;19.40;76.20;;;;;;5028148;28;20432;-88
2022/06/27 05:10:06;;;;;;;7.80;6.33;;;19.60;75.40;;;;;;5017496;28;20178;-88
2022/06/27 05:12:32;;;;;;;7.70;5.60;;;19.70;75.20;;;;;;5001231;28;21026;-87
2022/06/27 05:14:58;;;;;;;10.03;5.97;;;19.70;75.20;;;;;;5017747;28;20518;-88
2022/06/27 05:17:25;;;;;;;6.97;5.60;;;19.70;74.70;;;;;;5019121;28;20201;-88
2022/06/27 05:19:51;;;;;;;8.88;5.68;;;19.90;74.30;;;;;;5054528;28;20227;-87
2022/06/27 05:22:16;;;;;;;5.43;4.93;;;19.80;74.60;;;;;;5054618;28;20642;-89
2022/06/27 05:24:42;;;;;;;6.30;4.87;;;19.70;75.00;;;;;;5037243;28;20407;-88
2022/06/27 05:27:09;;;;;;;6.27;5.67;;;19.80;75.20;;;;;;5036667;28;20225;-91
2022/06/27 05:29:36;;;;;;;7.30;6.65;;;19.70;75.40;;;;;;5037088;28;20208;-88
2022/06/27 05:32:02;;;;;;;10.18;6.35;;;19.70;75.10;;;;;;5020520;28;20195;-88
2022/06/27 05:34:28;;;;;;;6.50;5.27;;;19.80;75.10;;;;;;5036364;28;20181;-88
2022/06/27 05:36:54;;;;;;;5.90;5.30;;;19.80;74.80;;;;;;5036051;28;20465;-89
2022/06/27 05:39:20;;;;;;;5.18;4.68;;;19.80;75.00;;;;;;5054247;28;20204;-88
2022/06/27 05:41:46;;;;;;;8.90;5.53;;;19.80;75.00;;;;;;5035738;28;20609;-88
2022/06/27 05:44:13;;;;;;;9.83;5.17;;;19.70;75.50;;;;;;5055005;28;20173;-89
2022/06/27 05:46:43;;;;;;;5.90;4.30;;;19.60;76.10;;;;;;5037733;28;20559;-89
2022/06/27 05:49:11;;;;;;;6.15;4.97;;;19.70;76.00;;;;;;5036826;28;20411;-88
2022/06/27 05:51:37;;;;;;;5.88;5.28;;;19.70;75.80;;;;;;5036488;28;20683;-88
2022/06/27 05:54:05;;;;;;;8.60;5.47;;;19.80;75.20;;;;;;5019971;28;20608;-87
2022/06/27 05:56:32;;;;;;;9.50;5.27;;;19.90;74.80;;;;;;5035533;28;20978;-88
2022/06/27 05:58:58;;;;;;;8.90;6.03;;;20.00;74.40;;;;;;5035407;28;20953;-88
2022/06/27 06:01:25;;;;;;;8.47;5.53;;;20.10;74.30;;;;;;5053738;28;20537;-88
2022/06/27 06:03:52;;;;;;;6.30;4.63;;;20.10;74.40;;;;;;5035987;28;20490;-88
2022/06/27 06:06:18;;;;;;;6.53;5.30;;;20.20;74.40;;;;;;5036447;28;20431;-88
2022/06/27 06:08:43;;;;;;;7.53;5.77;;;20.30;73.70;;;;;;5038539;28;20422;-89
2022/06/27 06:11:13;;;;;;;7.37;4.87;;;20.30;72.70;;;;;;5055076;28;20488;-88
2022/06/27 06:13:39;;;;;;;9.17;5.30;;;20.40;71.70;;;;;;5036663;28;20544;-88
2022/06/27 06:16:06;;;;;;;6.97;4.67;;;20.10;72.40;;;;;;5054835;28;20428;-88
2022/06/27 06:18:33;;;;;;;9.30;4.60;;;20.10;72.30;;;;;;5037163;28;20424;-88
2022/06/27 06:20:59;;;;;;;8.47;4.23;;;20.00;71.80;;;;;;5037266;28;20546;-88
2022/06/27 06:23:26;;;;;;;7.43;3.97;;;19.90;71.80;;;;;;5055302;28;20904;-88
2022/06/27 06:25:52;;;;;;;5.13;3.73;;;19.90;71.60;;;;;;5031290;28;20523;-88
2022/06/27 06:28:18;;;;;;;8.30;5.00;;;20.00;70.50;;;;;;5045647;28;20439;-88
2022/06/27 06:30:44;;;;;;;7.90;4.23;;;20.00;70.50;;;;;;5016910;28;20416;-87
2022/06/27 06:33:10;;;;;;;6.33;4.20;;;20.00;70.00;;;;;;5016220;28;20926;-88
2022/06/27 06:38:51;;;;;;;6.00;3.60;;;20.30;67.00;;;;;;5047113;28;20408;-88
2022/06/27 06:41:18;;;;;;;8.67;4.03;;;20.30;67.70;;;;;;5016295;28;20548;-88
2022/06/27 06:43:46;;;;;;;4.70;3.00;;;20.10;68.20;;;;;;5030604;28;20451;-88
2022/06/27 06:46:12;;;;;;;5.82;3.20;;;20.00;68.20;;;;;;5055711;28;20432;-88
2022/06/27 06:48:40;;;;;;;5.70;3.93;;;20.00;68.40;;;;;;5036084;28;20208;-88
2022/06/27 06:51:07;;;;;;;6.40;3.80;;;19.90;67.70;;;;;;5053757;28;20416;-88
2022/06/27 06:53:35;;;;;;;8.10;3.30;;;19.90;68.50;;;;;;5035788;28;20420;-88
2022/06/27 06:56:02;;;;;;;7.60;3.25;;;19.90;69.60;;;;;;5035729;28;20886;-88
2022/06/27 06:58:28;;;;;;;6.03;3.40;;;20.00;69.40;;;;;;5035752;28;20267;-88
2022/06/27 07:00:56;;;;;;;10.40;3.20;;;20.10;69.40;;;;;;5035506;28;21161;-87
2022/06/27 07:03:22;;;;;;;4.17;3.10;;;20.10;68.60;;;;;;5036247;28;20204;-88
2022/06/27 07:05:49;;;;;;;4.80;3.22;;;20.30;68.50;;;;;;5042720;28;20815;-88
2022/06/27 07:08:15;;;;;;;9.10;3.70;;;20.30;68.20;;;;;;5063585;28;20181;-90
2022/06/27 07:10:41;;;;;;;7.00;3.60;;;20.30;68.50;;;;;;5045594;28;20558;-88
2022/06/27 07:13:07;;;;;;;6.82;3.65;;;20.30;68.50;;;;;;5047462;28;20196;-88
2022/06/27 07:15:33;;;;;;;8.53;3.80;;;20.40;68.00;;;;;;5036479;28;20626;-89
2022/06/27 07:18:02;;;;;;;5.25;3.40;;;20.60;66.50;;;;;;5035488;28;20177;-89
2022/06/27 07:20:30;;;;;;;7.15;3.72;;;20.70;65.90;;;;;;5054117;28;20592;-90
2022/06/27 07:22:56;;;;;;;5.67;4.00;;;20.70;65.70;;;;;;5035361;28;20195;-89
2022/06/27 07:25:22;;;;;;;7.73;3.87;;;20.70;65.20;;;;;;5052821;28;20907;-90
2022/06/27 07:27:49;;;;;;;8.73;4.13;;;20.80;65.10;;;;;;5034822;28;20988;-89
2022/06/27 07:30:16;;;;;;;8.13;4.10;;;20.70;65.40;;;;;;5035063;28;20319;-89
2022/06/27 07:32:43;;;;;;;7.95;3.70;;;20.70;65.80;;;;;;5035162;28;20981;-89
2022/06/27 07:35:11;;;;;;;6.18;3.50;;;20.70;66.10;;;;;;5035051;28;20176;-89
2022/06/27 07:37:45;;;;;;;6.33;3.93;;;20.70;66.00;;;;;;5052421;28;20181;-89
2022/06/27 07:40:11;;;;;;;6.13;3.30;;;20.70;65.80;;;;;;5034410;28;21064;-89
2022/06/27 07:42:39;;;;;;;5.57;3.80;;;20.80;65.10;;;;;;5034321;28;20411;-89
2022/06/27 07:45:07;;;;;;;6.37;3.77;;;20.80;65.10;;;;;;5034576;28;20416;-89
2022/06/27 07:47:33;;;;;;;6.10;3.60;;;20.80;64.60;;;;;;5034425;28;20481;-87
2022/06/27 07:49:59;;;;;;;4.37;2.80;;;20.90;64.50;;;;;;5019141;28;20427;-89
2022/06/27 07:52:24;;;;;;;10.30;3.80;;;20.80;65.00;;;;;;5034365;28;20703;-89
2022/06/27 07:54:51;;;;;;;9.27;3.73;;;20.70;66.50;;;;;;5034547;28;20184;-88
2022/06/27 07:57:18;;;;;;;6.40;3.00;;;20.70;67.00;;;;;;5034733;28;20209;-88
2022/06/27 07:59:44;;;;;;;8.47;4.23;;;20.70;68.10;;;;;;5034447;28;20454;-88
2022/06/27 08:02:10;;;;;;;6.40;3.43;;;20.90;67.10;;;;;;5034604;28;20451;-87
2022/06/27 08:04:42;;;;;;;10.20;5.20;;;21.30;65.20;;;;;;5034662;28;20231;-87
2022/06/27 08:07:07;;;;;;;5.33;3.53;;;21.50;64.50;;;;;;5034591;28;20708;-89
2022/06/27 08:09:33;;;;;;;7.50;3.70;;;21.50;64.60;;;;;;5052219;28;20412;-89
2022/06/27 08:12:00;;;;;;;5.30;3.20;;;21.60;64.30;;;;;;5052498;28;20416;-89
2022/06/27 08:14:26;;;;;;;6.80;3.60;;;21.80;63.60;;;;;;5034135;28;20267;-89
2022/06/27 08:16:52;;;;;;;9.30;2.63;;;22.00;61.00;;;;;;5034099;28;20473;-89
2022/06/27 08:19:23;;;;;;;7.73;2.97;;;22.00;59.80;;;;;;5036519;28;20207;-89
2022/06/27 08:21:49;;;;;;;10.40;4.40;;;21.80;62.30;;;;;;5037481;28;20580;-89
2022/06/27 08:24:17;;;;;;;5.67;3.23;;;21.60;63.40;;;;;;5037866;28;20914;-89
2022/06/27 08:26:44;;;;;;;4.43;2.90;;;21.40;64.10;;;;;;5038551;28;20544;-88
2022/06/27 08:29:10;;;;;;;5.97;3.60;;;21.30;64.50;;;;;;5061283;28;20607;-88
2022/06/27 08:31:41;;;;;;;6.27;3.10;;;21.30;65.30;;;;;;5044469;28;20481;-87
2022/06/27 08:34:07;;;;;;;4.30;3.80;;;21.10;65.90;;;;;;5042999;28;20523;-87
2022/06/27 08:36:35;;;;;;;3.83;3.30;;;21.10;66.50;;;;;;5060939;28;20444;-87
2022/06/27 08:39:05;;;;;;;9.87;3.77;;;21.10;66.80;;;;;;5018406;28;20451;-87
2022/06/27 08:41:31;;;;;;;3.90;3.50;;;21.10;65.40;;;;;;5034410;28;20542;-87
2022/06/27 08:44:00;;;;;;;7.53;3.70;;;21.10;65.30;;;;;;5021180;28;20416;-87
2022/06/27 08:46:27;;;;;;;5.13;3.57;;;21.10;65.00;;;;;;5037553;28;20447;-88
2022/06/27 08:48:55;;;;;;;7.67;4.50;;;21.10;64.70;;;;;;5037128;28;20465;-87
2022/06/27 08:51:21;;;;;;;6.20;4.07;;;21.20;64.00;;;;;;5037620;28;20424;-88
2022/06/27 08:53:53;;;;;;;6.13;3.77;;;21.30;63.00;;;;;;5055404;28;21033;-87
2022/06/27 08:56:20;;;;;;;6.70;3.83;;;21.20;63.00;;;;;;5055647;28;20446;-87
2022/06/27 08:58:47;;;;;;;13.40;4.60;;;21.20;63.30;;;;;;5036849;28;20935;-87
2022/06/27 09:01:32;;;;;;;6.53;4.60;;;21.20;63.80;;;;;;5037135;28;20881;-87
2022/06/27 09:04:01;;;;;;;7.70;4.40;;;21.10;64.20;;;;;;5055295;28;20419;-90
2022/06/27 09:06:33;;;;;;;7.20;4.13;;;21.10;64.40;;;;;;5054995;28;20424;-90
2022/06/27 09:09:09;;;;;;;10.20;5.33;;;21.10;65.70;;;;;;5037867;28;20816;-89
2022/06/27 09:11:37;;;;;;;8.40;4.70;;;21.10;67.40;;;;;;5036805;28;20412;-90
2022/06/27 09:14:05;;;;;;;6.70;4.40;;;20.90;68.20;;;;;;5037880;28;20416;-88
2022/06/27 09:16:32;;;;;;;9.93;5.05;;;20.80;69.30;;;;;;5037041;28;20293;-87
2022/06/27 09:18:59;;;;;;;8.18;4.63;;;20.70;69.70;;;;;;5054571;28;20540;-87
2022/06/27 09:21:27;;;;;;;8.68;4.93;;;20.60;70.20;;;;;;5036966;28;20209;-88
2022/06/27 09:24:01;;;;;;;5.53;4.60;;;20.50;70.50;;;;;;5037567;28;20268;-87
2022/06/27 09:26:32;;;;;;;12.13;6.72;;;20.50;70.50;;;;;;5037239;28;20196;-88
2022/06/27 09:29:04;;;;;;;18.08;5.72;;;20.50;70.70;;;;;;5036654;28;20196;-87
2022/06/27 09:31:31;;;;;;;14.82;6.20;;;20.50;71.60;;;;;;5053982;28;20672;-87
2022/06/27 09:34:12;;;;;;;13.63;5.30;;;20.60;72.10;;;;;;5036983;28;20173;-87
2022/06/27 09:37:03;;;;;;;6.75;4.72;;;20.70;73.00;;;;;;5054523;28;20246;-87
2022/06/27 09:39:34;;;;;;;9.55;4.45;;;20.70;73.20;;;;;;5036493;28;20177;-87
2022/06/27 09:42:05;;;;;;;13.00;5.95;;;20.70;72.20;;;;;;5036344;28;20205;-87
2022/06/27 09:44:38;;;;;;;5.63;4.38;;;20.70;72.70;;;;;;5054675;28;20491;-87
2022/06/27 09:47:16;;;;;;;10.50;5.95;;;20.70;72.00;;;;;;5036022;28;20197;-87
2022/06/27 09:49:44;;;;;;;11.43;5.55;;;20.70;74.50;;;;;;5037189;28;20165;-88
2022/06/27 09:52:16;;;;;;;10.18;6.45;;;20.50;76.90;;;;;;5037176;28;20188;-88
2022/06/27 09:54:44;;;;;;;12.25;7.00;;;20.40;78.90;;;;;;5036677;28;20173;-88
2022/06/27 09:57:12;;;;;;;11.25;6.68;;;20.20;81.40;;;;;;5054051;28;20327;-88
2022/06/27 09:59:39;;;;;;;11.18;7.80;;;19.90;83.60;;;;;;5036123;28;20177;-87
2022/06/27 10:02:06;;;;;;;9.98;7.80;;;19.70;84.40;;;;;;5040592;28;20209;-88
2022/06/27 10:04:32;;;;;;;10.73;7.68;;;19.60;85.10;;;;;;5040728;28;20183;-88
2022/06/27 10:07:02;;;;;;;17.33;7.55;;;19.50;86.10;;;;;;5040074;28;20197;-88
2022/06/27 10:09:29;;;;;;;16.90;8.90;;;19.40;87.10;;;;;;5019825;28;20683;-87
2022/06/27 10:12:22;;;;;;;14.63;8.40;;;19.20;89.10;;;;;;5019602;28;20189;-87
2022/06/27 10:15:10;;;;;;;13.38;8.38;;;19.10;92.00;;;;;;5037219;28;20181;-88
2022/06/27 10:17:38;;;;;;;11.68;6.78;;;19.20;93.70;;;;;;5036252;28;20300;-88
2022/06/27 10:20:12;;;;;;;9.95;6.40;;;19.20;93.90;;;;;;5035725;28;20601;-88
2022/06/27 10:22:39;;;;;;;10.30;6.38;;;19.40;93.80;;;;;;5054804;28;20176;-88
2022/06/27 10:25:45;;;;;;;6.93;5.55;;;19.50;91.90;;;;;;5053630;28;20227;-88
2022/06/27 10:28:12;;;;;;;6.55;4.80;;;19.50;88.10;;;;;;5052486;28;20256;-87
2022/06/27 10:30:51;;;;;;;6.35;5.40;;;19.40;86.60;;;;;;5054730;28;20176;-88
2022/06/27 10:33:23;;;;;;;7.25;4.85;;;19.50;86.80;;;;;;5036532;28;20185;-88
2022/06/27 10:38:54;;;;;;;12.00;6.07;;;19.40;85.10;;;;;;5026380;28;20238;-88
2022/06/27 10:41:19;;;;;;;12.80;6.55;;;19.40;85.40;;;;;;5063122;28;20209;-88
2022/06/27 10:43:54;;;;;;;10.30;6.87;;;19.40;86.10;;;;;;5048073;28;20173;-87
2022/06/27 10:46:20;;;;;;;12.07;7.88;;;19.30;87.10;;;;;;5039842;28;20301;-88
2022/06/27 10:48:57;;;;;;;11.10;7.97;;;19.30;87.20;;;;;;5035837;28;20727;-88
2022/06/27 10:51:32;;;;;;;13.38;8.05;;;19.40;87.00;;;;;;5019928;28;20179;-87
2022/06/27 10:54:04;;;;;;;16.35;8.30;;;19.30;87.60;;;;;;5054249;28;20184;-87
2022/06/27 10:56:54;;;;;;;12.43;8.48;;;19.30;87.70;;;;;;5036079;28;20197;-88
2022/06/27 10:59:20;;;;;;;10.65;6.80;;;19.30;89.20;;;;;;5036751;28;20188;-87
2022/06/27 11:01:52;;;;;;;7.63;4.93;;;19.30;88.50;;;;;;5035812;28;20200;-87
2022/06/27 11:04:28;;;;;;;9.38;4.32;;;19.30;88.60;;;;;;5036364;28;20173;-89
2022/06/27 11:07:06;;;;;;;7.55;4.43;;;19.20;88.00;;;;;;5036349;28;20201;-88
2022/06/27 11:09:40;;;;;;;6.43;3.55;;;19.20;86.00;;;;;;5036923;28;20533;-88
2022/06/27 11:12:07;;;;;;;11.93;4.15;;;19.10;85.10;;;;;;5054868;28;20164;-87
2022/06/27 11:15:03;;;;;;;9.88;4.00;;;19.00;85.00;;;;;;5056977;28;20228;-88
2022/06/27 11:17:38;;;;;;;5.15;3.95;;;18.80;84.70;;;;;;5021062;28;20200;-88
2022/06/27 11:20:36;;;;;;;4.90;4.40;;;18.80;85.40;;;;;;5055209;28;20636;-88
2022/06/27 11:23:03;;;;;;;6.70;4.20;;;18.70;86.60;;;;;;5034722;28;20180;-88
2022/06/27 11:25:30;;;;;;;7.53;3.85;;;18.70;87.70;;;;;;5037928;28;20222;-88
2022/06/27 11:33:33;;;;;;;6.20;3.88;;;19.10;90.50;;;;;;5055006;28;20243;-88
2022/06/27 11:36:00;;;;;;;6.60;4.35;;;19.40;89.80;;;;;;5038465;28;20209;-88
2022/06/27 11:38:31;;;;;;;7.10;4.95;;;19.50;89.00;;;;;;5036189;28;20205;-88
2022/06/27 11:41:02;;;;;;;10.55;4.70;;;19.70;89.50;;;;;;5035873;28;20207;-87
2022/06/27 11:43:48;;;;;;;5.53;4.20;;;19.80;88.50;;;;;;5036270;28;20208;-89
2022/06/27 11:46:25;;;;;;;6.60;5.05;;;19.80;88.80;;;;;;5036111;28;20196;-88
2022/06/27 11:48:56;;;;;;;6.88;5.07;;;19.90;88.00;;;;;;5056088;28;20649;-88
2022/06/27 11:51:26;;;;;;;6.67;4.67;;;20.10;86.60;;;;;;5038562;28;20181;-88
2022/06/27 11:53:54;;;;;;;14.83;7.00;;;20.10;87.50;;;;;;5038144;28;20427;-88
2022/06/27 11:56:22;;;;;;;11.23;7.20;;;20.10;87.10;;;;;;5040256;28;20446;-87
2022/06/27 11:58:52;;;;;;;10.43;6.07;;;19.90;86.90;;;;;;5039899;28;20454;-89
2022/06/27 12:01:21;;;;;;;10.50;6.10;;;19.70;88.10;;;;;;5040763;28;20459;-88
2022/06/27 12:04:09;;;;;;;10.73;7.28;;;19.60;89.20;;;;;;5058073;28;20503;-89
2022/06/27 12:06:50;;;;;;;11.20;6.55;;;19.60;89.50;;;;;;5040596;28;20197;-89
2022/06/27 12:09:16;;;;;;;13.52;6.95;;;19.60;89.00;;;;;;5040499;28;20188;-88
2022/06/27 12:11:50;;;;;;;8.25;5.38;;;19.50;87.70;;;;;;5039376;28;20196;-89
2022/06/27 12:14:16;;;;;;;16.92;4.63;;;19.20;85.50;;;;;;5039305;28;20185;-88
2022/06/27 12:16:59;;;;;;;5.50;3.67;;;18.80;83.70;;;;;;5056204;28;20200;-88
2022/06/27 12:19:26;;;;;;;4.30;3.10;;;18.50;84.00;;;;;;5053376;28;20538;-88
2022/06/27 12:21:53;;;;;;;14.50;3.65;;;18.10;84.00;;;;;;5038597;28;20243;-88
2022/06/27 12:24:19;;;;;;;4.43;3.10;;;17.90;84.40;;;;;;5057142;28;20218;-88
2022/06/27 12:26:45;;;;;;;9.32;4.63;;;17.80;85.10;;;;;;5038883;28;20588;-88
2022/06/27 12:29:11;;;;;;;11.13;4.77;;;17.90;86.40;;;;;;5039471;28;20189;-88
2022/06/27 12:31:38;;;;;;;8.23;4.03;;;17.90;86.40;;;;;;5040135;28;20404;-88
2022/06/27 12:34:05;;;;;;;6.13;3.65;;;17.80;85.70;;;;;;5058967;28;20174;-88
2022/06/27 12:36:32;;;;;;;6.00;3.50;;;17.80;86.50;;;;;;5039149;28;20212;-88
2022/06/27 12:38:59;;;;;;;6.45;3.03;;;17.90;86.90;;;;;;5042975;28;20215;-88
2022/06/27 12:41:25;;;;;;;8.25;2.97;;;17.90;86.30;;;;;;5038651;28;20584;-88
2022/06/27 12:43:50;;;;;;;10.70;3.20;;;18.10;86.50;;;;;;5038813;28;20185;-88
2022/06/27 12:46:18;;;;;;;4.20;2.30;;;18.30;86.30;;;;;;5056680;28;20431;-88
2022/06/27 12:48:44;;;;;;;4.50;2.85;;;18.40;85.10;;;;;;5038149;28;20267;-88
2022/06/27 12:51:10;;;;;;;7.10;2.13;;;18.50;84.60;;;;;;5038897;28;20197;-88
2022/06/27 12:53:36;;;;;;;12.45;2.67;;;18.50;84.00;;;;;;5041045;28;20178;-88
2022/06/27 12:56:04;;;;;;;6.22;2.90;;;18.40;82.80;;;;;;5038680;28;20225;-88
2022/06/27 12:58:31;;;;;;;8.35;3.33;;;18.60;83.90;;;;;;5032602;28;20181;-88
2022/06/27 13:00:58;;;;;;;6.82;3.08;;;18.60;83.70;;;;;;5021351;28;20318;-88
2022/06/27 13:03:23;;;;;;;5.95;2.78;;;18.60;82.50;;;;;;5021866;28;20180;-88
2022/06/27 13:05:49;;;;;;;8.33;2.40;;;18.30;82.10;;;;;;5040009;28;20281;-88